Time;durP1;ratioP1;P1;durP2;ratioP2;P2;SDS_P1;SDS_P2;PMS_P1;PMS_P2;Temp;Humidity;BMP_temperature;BMP_pressure;BME280_temperature;BME280_humidity;BME280_pressure;Samples;Min_cycle;Max_cycle;Signal;HPM_P1;HPM_P2
2021/03/06 00:00:16;;;;;;;;;;;10.80;90.60;;;;;;5043912;28;87192;-65
2021/03/06 00:02:42;;;;;;;;;;;10.80;90.30;;;;;;5040400;27;90606;-64
2021/03/06 00:05:08;;;;;;;;;;;10.80;90.50;;;;;;5041150;27;87256;-65
2021/03/06 00:07:34;;;;;;;;;;;10.70;90.50;;;;;;5040581;27;87196;-65
2021/03/06 00:09:59;;;;;;;;;;;10.80;90.50;;;;;;5041068;28;87594;-65
2021/03/06 00:12:25;;;;;;;;;;;10.70;90.50;;;;;;5039196;27;87987;-65
2021/03/06 00:14:50;;;;;;;;;;;10.70;90.50;;;;;;5036805;27;87208;-64
2021/03/06 00:17:16;;;;;;;;;;;10.70;90.50;;;;;;5035729;28;88231;-64
2021/03/06 00:19:41;;;;;;;;;;;10.70;90.50;;;;;;5038874;28;86516;-64
2021/03/06 00:22:07;;;;;;;;;;;10.70;90.40;;;;;;5039235;27;87129;-65
2021/03/06 00:24:33;;;;;;;;;;;10.70;90.50;;;;;;5037786;28;87296;-64
2021/03/06 00:26:59;;;;;;;;;;;10.70;90.50;;;;;;5035635;27;88143;-64
2021/03/06 00:29:24;;;;;;;;;;;10.70;90.50;;;;;;5036282;28;87642;-64
2021/03/06 00:31:50;;;;;;;;;;;10.70;90.50;;;;;;5037241;27;87126;-65
2021/03/06 00:34:15;;;;;;;;;;;10.70;90.40;;;;;;5036792;27;87603;-64
2021/03/06 00:36:42;;;;;;;;;;;10.60;90.50;;;;;;5037551;27;88542;-64
2021/03/06 00:39:08;;;;;;;;;;;10.60;90.30;;;;;;5040147;27;87127;-64
2021/03/06 00:41:34;;;;;;;;;;;10.60;90.50;;;;;;5039394;28;87604;-64
2021/03/06 00:44:00;;;;;;;;;;;10.60;90.40;;;;;;5041931;27;87408;-65
2021/03/06 00:46:25;;;;;;;;;;;10.60;90.50;;;;;;5039198;28;87174;-65
2021/03/06 00:48:51;;;;;;;;;;;10.60;90.50;;;;;;5039510;27;88104;-65
2021/03/06 00:51:17;;;;;;;;;;;10.60;90.40;;;;;;5038320;28;88119;-64
2021/03/06 00:53:42;;;;;;;;;;;10.50;90.60;;;;;;5037649;28;88022;-64
2021/03/06 00:56:08;;;;;;;;;;;10.50;90.50;;;;;;5037609;28;88239;-65
2021/03/06 00:58:33;;;;;;;;;;;10.50;90.40;;;;;;5039161;28;87193;-65
2021/03/06 01:00:59;;;;;;;;;;;10.50;90.40;;;;;;5040579;28;87516;-66
2021/03/06 01:03:25;;;;;;;;;;;10.50;90.50;;;;;;5038982;27;88228;-64
2021/03/06 01:05:50;;;;;;;;;;;10.50;90.50;;;;;;5043324;27;87197;-64
2021/03/06 01:08:16;;;;;;;;;;;10.50;90.40;;;;;;5039775;27;86884;-64
2021/03/06 01:10:42;;;;;;;;;;;10.50;90.50;;;;;;5040372;27;87190;-65
2021/03/06 01:13:09;;;;;;;;;;;10.50;90.50;;;;;;5040550;27;87132;-64
2021/03/06 01:15:35;;;;;;;;;;;10.40;90.40;;;;;;5039098;27;88673;-65
2021/03/06 01:18:01;;;;;;;;;;;10.40;90.40;;;;;;5040078;28;87227;-65
2021/03/06 01:20:26;;;;;;;;;;;10.40;90.30;;;;;;5040736;28;87713;-65
2021/03/06 01:22:52;;;;;;;;;;;10.40;90.40;;;;;;5037287;27;88546;-66
2021/03/06 01:25:18;;;;;;;;;;;10.40;90.40;;;;;;5038562;27;88198;-64
2021/03/06 01:27:43;;;;;;;;;;;10.40;90.50;;;;;;5038246;27;87169;-64
2021/03/06 01:30:09;;;;;;;;;;;10.40;90.50;;;;;;5035299;28;87118;-64
2021/03/06 01:32:35;;;;;;;;;;;10.40;90.40;;;;;;5040856;28;87633;-65
2021/03/06 01:35:01;;;;;;;;;;;10.30;90.30;;;;;;5039382;28;87738;-66
2021/03/06 01:37:26;;;;;;;;;;;10.30;90.50;;;;;;5039708;28;87239;-65
2021/03/06 01:39:52;;;;;;;;;;;10.30;90.50;;;;;;5038491;28;88080;-65
2021/03/06 01:42:19;;;;;;;;;;;10.30;90.40;;;;;;5037765;28;88036;-65
2021/03/06 01:44:45;;;;;;;;;;;10.30;90.50;;;;;;5035503;28;87191;-64
2021/03/06 01:47:10;;;;;;;;;;;10.20;90.30;;;;;;5039467;28;88645;-64
2021/03/06 01:49:36;;;;;;;;;;;10.30;90.40;;;;;;5038801;28;88018;-64
2021/03/06 01:52:01;;;;;;;;;;;10.30;90.50;;;;;;5036222;28;87199;-64
2021/03/06 01:54:27;;;;;;;;;;;10.30;90.40;;;;;;5035548;28;88452;-64
2021/03/06 01:56:53;;;;;;;;;;;10.20;90.50;;;;;;5036660;27;86446;-64
2021/03/06 01:59:19;;;;;;;;;;;10.20;90.50;;;;;;5035483;27;87214;-64
2021/03/06 02:01:44;;;;;;;;;;;10.20;90.20;;;;;;5036833;27;88402;-64
2021/03/06 02:04:10;;;;;;;;;;;10.20;90.40;;;;;;5036714;28;88847;-64
2021/03/06 02:06:36;;;;;;;;;;;10.20;90.40;;;;;;5035359;28;87675;-64
2021/03/06 02:09:01;;;;;;;;;;;10.20;90.40;;;;;;5038819;27;87559;-64
2021/03/06 02:11:37;;;;;;;;;;;10.20;90.40;;;;;;5039151;27;87144;-64
2021/03/06 02:14:14;;;;;;;;;;;10.10;90.40;;;;;;5039751;27;88078;-64
2021/03/06 02:16:43;;;;;;;;;;;10.10;90.40;;;;;;5040283;27;87209;-64
2021/03/06 02:19:35;;;;;;;;;;;10.10;90.50;;;;;;5043211;27;87154;-65
2021/03/06 02:22:15;;;;;;;;;;;10.10;90.40;;;;;;5041707;27;86912;-64
2021/03/06 02:24:41;;;;;;;;;;;10.10;90.40;;;;;;5040944;28;87137;-64
2021/03/06 02:27:28;;;;;;;;;;;10.10;90.30;;;;;;5040162;28;87462;-64
2021/03/06 02:29:54;;;;;;;;;;;10.10;90.40;;;;;;5042299;27;89747;-65
2021/03/06 02:32:24;;;;;;;;;;;10.10;90.40;;;;;;5045658;28;87116;-65
2021/03/06 02:35:05;;;;;;;;;;;10.00;90.30;;;;;;5042686;27;87937;-66
2021/03/06 02:37:31;;;;;;;;;;;10.00;90.40;;;;;;5040662;27;88146;-64
2021/03/06 02:39:57;;;;;;;;;;;10.00;90.40;;;;;;5039442;27;88596;-64
2021/03/06 02:42:24;;;;;;;;;;;10.00;90.20;;;;;;5038459;27;88100;-64
2021/03/06 02:44:51;;;;;;;;;;;10.00;90.20;;;;;;5043108;27;87131;-65
2021/03/06 02:47:17;;;;;;;;;;;10.00;90.40;;;;;;5041040;27;87567;-64
2021/03/06 02:49:50;;;;;;;;;;;10.00;90.40;;;;;;5039208;28;88426;-64
2021/03/06 02:52:15;;;;;;;;;;;10.00;90.50;;;;;;5042743;27;87173;-66
2021/03/06 02:54:41;;;;;;;;;;;9.90;90.40;;;;;;5045019;28;89194;-64
2021/03/06 02:57:06;;;;;;;;;;;9.90;90.30;;;;;;5040530;28;88800;-66
2021/03/06 02:59:41;;;;;;;;;;;9.90;90.40;;;;;;5043016;27;88324;-66
2021/03/06 03:02:25;;;;;;;;;;;9.90;90.40;;;;;;5037422;28;89411;-64
2021/03/06 03:04:54;;;;;;;;;;;9.90;90.40;;;;;;5041140;27;87140;-65
2021/03/06 03:07:21;;;;;;;;;;;9.90;90.40;;;;;;5038087;28;87565;-65
2021/03/06 03:09:50;;;;;;;;;;;9.80;90.40;;;;;;5039820;28;88183;-64
2021/03/06 03:12:16;;;;;;;;;;;9.80;90.30;;;;;;5041323;27;86394;-64
2021/03/06 03:14:51;;;;;;;;;;;9.80;90.40;;;;;;5039511;27;87166;-65
2021/03/06 03:17:20;;;;;;;;;;;9.80;90.40;;;;;;5044573;27;88543;-64
2021/03/06 03:20:15;;;;;;;;;;;9.80;90.30;;;;;;5037844;27;88158;-64
2021/03/06 03:22:46;;;;;;;;;;;9.80;90.40;;;;;;5025273;28;88829;-65
2021/03/06 03:25:12;;;;;;;;;;;9.80;90.40;;;;;;5041565;27;87228;-64
2021/03/06 03:27:39;;;;;;;;;;;9.80;90.40;;;;;;5040940;28;87214;-64
2021/03/06 03:30:06;;;;;;;;;;;9.80;90.40;;;;;;5040051;27;88014;-64
2021/03/06 03:32:32;;;;;;;;;;;9.70;90.40;;;;;;5037186;27;87157;-64
2021/03/06 03:34:59;;;;;;;;;;;9.70;90.30;;;;;;5038699;28;88254;-65
2021/03/06 03:37:25;;;;;;;;;;;9.70;90.40;;;;;;5041043;28;87472;-65
2021/03/06 03:39:51;;;;;;;;;;;9.70;90.60;;;;;;5044392;28;87224;-65
2021/03/06 03:42:19;;;;;;;;;;;9.70;90.40;;;;;;5041347;28;88207;-65
2021/03/06 03:44:45;;;;;;;;;;;9.70;90.30;;;;;;5038115;27;88075;-64
2021/03/06 03:47:11;;;;;;;;;;;9.70;90.30;;;;;;5039358;28;88339;-64
2021/03/06 03:49:38;;;;;;;;;;;9.70;90.30;;;;;;5037895;27;87734;-64
2021/03/06 03:52:03;;;;;;;;;;;9.60;90.20;;;;;;5037624;27;87156;-64
2021/03/06 03:54:29;;;;;;;;;;;9.60;90.40;;;;;;5038549;27;87470;-64
2021/03/06 03:56:54;;;;;;;;;;;9.60;90.40;;;;;;5039438;28;87284;-65
2021/03/06 03:59:20;;;;;;;;;;;9.60;90.40;;;;;;5043979;28;87134;-65
2021/03/06 04:01:46;;;;;;;;;;;9.60;90.30;;;;;;5040511;28;87848;-64
2021/03/06 04:04:31;;;;;;;;;;;9.60;90.20;;;;;;5038647;27;88265;-64
2021/03/06 04:06:58;;;;;;;;;;;9.60;90.30;;;;;;5037537;28;87687;-65
2021/03/06 04:09:24;;;;;;;;;;;9.50;90.30;;;;;;5036367;28;89265;-65
2021/03/06 04:11:49;;;;;;;;;;;9.60;90.40;;;;;;5037108;27;87150;-64
2021/03/06 04:14:15;;;;;;;;;;;9.60;90.30;;;;;;5037582;28;87623;-63
2021/03/06 04:16:41;;;;;;;;;;;9.50;90.30;;;;;;5037434;27;88338;-64
2021/03/06 04:19:06;;;;;;;;;;;9.50;90.30;;;;;;5038209;27;87144;-64
2021/03/06 04:21:32;;;;;;;;;;;9.50;90.20;;;;;;5041125;28;87742;-64
2021/03/06 04:23:57;;;;;;;;;;;9.50;90.20;;;;;;5039763;27;87131;-64
2021/03/06 04:26:23;;;;;;;;;;;9.50;90.10;;;;;;5041180;28;87541;-65
2021/03/06 04:28:49;;;;;;;;;;;9.40;90.30;;;;;;5040283;28;87136;-65
2021/03/06 04:31:14;;;;;;;;;;;9.50;90.20;;;;;;5039479;28;87183;-64
2021/03/06 04:33:40;;;;;;;;;;;9.40;90.30;;;;;;5037877;27;88108;-65
2021/03/06 04:36:06;;;;;;;;;;;9.40;90.30;;;;;;5038020;28;88233;-65
2021/03/06 04:38:31;;;;;;;;;;;9.40;90.30;;;;;;5039338;27;87164;-64
2021/03/06 04:40:56;;;;;;;;;;;9.40;90.40;;;;;;5040620;28;87462;-65
2021/03/06 04:43:22;;;;;;;;;;;9.40;90.30;;;;;;5043635;28;88257;-65
2021/03/06 04:45:47;;;;;;;;;;;9.40;90.20;;;;;;5039774;28;87498;-64
2021/03/06 04:48:13;;;;;;;;;;;9.40;90.30;;;;;;5035815;28;89353;-64
2021/03/06 04:50:39;;;;;;;;;;;9.40;90.30;;;;;;5037850;27;86389;-64
2021/03/06 04:53:04;;;;;;;;;;;9.30;90.30;;;;;;5038311;27;87146;-63
2021/03/06 04:55:30;;;;;;;;;;;9.30;90.20;;;;;;5037672;28;91727;-65
2021/03/06 04:57:55;;;;;;;;;;;9.30;90.30;;;;;;5039916;28;88179;-65
2021/03/06 05:00:21;;;;;;;;;;;9.30;90.30;;;;;;5038329;28;88790;-64
2021/03/06 05:02:47;;;;;;;;;;;9.30;90.30;;;;;;5035788;28;87980;-64
2021/03/06 05:05:12;;;;;;;;;;;9.30;90.40;;;;;;5040274;27;87207;-64
2021/03/06 05:07:38;;;;;;;;;;;9.30;90.40;;;;;;5036555;27;88683;-64
2021/03/06 05:10:04;;;;;;;;;;;9.30;90.30;;;;;;5037848;28;87152;-64
2021/03/06 05:12:30;;;;;;;;;;;9.20;90.30;;;;;;5038489;28;87162;-65
2021/03/06 05:14:55;;;;;;;;;;;9.20;90.30;;;;;;5039859;27;86845;-66
2021/03/06 05:17:21;;;;;;;;;;;9.20;90.40;;;;;;5039846;28;88424;-64
2021/03/06 05:19:46;;;;;;;;;;;9.20;90.30;;;;;;5040094;28;87168;-64
2021/03/06 05:22:12;;;;;;;;;;;9.20;90.30;;;;;;5039301;28;88695;-65
2021/03/06 05:24:37;;;;;;;;;;;9.20;90.20;;;;;;5037941;28;88691;-64
2021/03/06 05:27:03;;;;;;;;;;;9.20;90.30;;;;;;5038602;28;87126;-65
2021/03/06 05:29:29;;;;;;;;;;;9.20;90.30;;;;;;5037193;27;87227;-64
2021/03/06 05:31:55;;;;;;;;;;;9.20;90.20;;;;;;5036744;27;87179;-64
2021/03/06 05:34:20;;;;;;;;;;;9.20;90.30;;;;;;5035466;27;87696;-64
2021/03/06 05:36:46;;;;;;;;;;;9.10;90.50;;;;;;5036918;28;87735;-63
2021/03/06 05:39:11;;;;;;;;;;;9.10;90.30;;;;;;5036742;28;87595;-65
2021/03/06 05:41:38;;;;;;;;;;;9.10;90.20;;;;;;5036126;28;88214;-64
2021/03/06 05:44:03;;;;;;;;;;;9.10;90.30;;;;;;5036865;27;87175;-64
2021/03/06 05:46:29;;;;;;;;;;;9.10;90.40;;;;;;5040289;27;88086;-64
2021/03/06 05:48:55;;;;;;;;;;;9.10;90.40;;;;;;5043397;28;89131;-65
2021/03/06 05:51:20;;;;;;;;;;;9.10;90.30;;;;;;5043679;28;87561;-65
2021/03/06 05:53:46;;;;;;;;;;;9.00;90.30;;;;;;5041179;28;88418;-64
2021/03/06 05:56:13;;;;;;;;;;;9.10;90.30;;;;;;5043967;27;88470;-64
2021/03/06 05:58:42;;;;;;;;;;;9.10;90.30;;;;;;5043214;27;87143;-65
2021/03/06 06:01:08;;;;;;;;;;;9.00;90.40;;;;;;5039142;27;88129;-64
2021/03/06 06:03:33;;;;;;;;;;;9.00;90.30;;;;;;5041403;28;86417;-64
2021/03/06 06:05:59;;;;;;;;;;;9.00;90.30;;;;;;5042210;28;87203;-64
2021/03/06 06:08:26;;;;;;;;;;;9.00;90.30;;;;;;5045976;28;87159;-65
2021/03/06 06:10:51;;;;;;;;;;;9.00;90.30;;;;;;5042347;28;88094;-65
2021/03/06 06:13:17;;;;;;;;;;;9.00;90.30;;;;;;5042269;28;88320;-64
2021/03/06 06:15:43;;;;;;;;;;;9.00;90.20;;;;;;5041347;28;87148;-65
2021/03/06 06:18:08;;;;;;;;;;;9.00;90.60;;;;;;5041456;28;87215;-64
2021/03/06 06:20:36;;;;;;;;;;;8.90;90.30;;;;;;5040561;27;88496;-64
2021/03/06 06:23:15;;;;;;;;;;;8.90;90.30;;;;;;5043488;27;88563;-64
2021/03/06 06:25:42;;;;;;;;;;;8.90;90.30;;;;;;5039272;27;87168;-63
2021/03/06 06:28:07;;;;;;;;;;;8.90;90.20;;;;;;5039275;27;87952;-64
2021/03/06 06:30:33;;;;;;;;;;;8.90;90.20;;;;;;5041857;27;87148;-64
2021/03/06 06:32:59;;;;;;;;;;;8.90;90.20;;;;;;5037905;27;88633;-64
2021/03/06 06:35:24;;;;;;;;;;;8.90;90.30;;;;;;5039308;28;89728;-64
2021/03/06 06:38:03;;;;;;;;;;;8.90;90.40;;;;;;5043291;27;87242;-65
2021/03/06 06:40:30;;;;;;;;;;;8.80;90.30;;;;;;5037942;27;88237;-64
2021/03/06 06:42:56;;;;;;;;;;;8.80;90.20;;;;;;5042193;27;87128;-64
2021/03/06 06:45:22;;;;;;;;;;;8.80;90.20;;;;;;5040903;27;87168;-64
2021/03/06 06:47:49;;;;;;;;;;;8.80;90.30;;;;;;5039173;27;87621;-64
2021/03/06 06:50:26;;;;;;;;;;;8.80;90.30;;;;;;5038149;27;87239;-64
2021/03/06 06:52:52;;;;;;;;;;;8.80;90.30;;;;;;5044967;27;86596;-64
2021/03/06 06:55:17;;;;;;;;;;;8.80;90.30;;;;;;5042237;27;87163;-64
2021/03/06 06:57:47;;;;;;;;;;;8.80;90.20;;;;;;5041525;28;87491;-64
2021/03/06 07:00:13;;;;;;;;;;;8.80;90.20;;;;;;5041371;28;88968;-64
2021/03/06 07:02:50;;;;;;;;;;;8.80;90.30;;;;;;5038764;28;87226;-64
2021/03/06 07:05:24;;;;;;;;;;;8.80;90.20;;;;;;5038330;28;87175;-64
2021/03/06 07:07:50;;;;;;;;;;;8.70;90.40;;;;;;5040090;28;88211;-64
2021/03/06 07:10:16;;;;;;;;;;;8.80;90.20;;;;;;5037949;28;87182;-65
2021/03/06 07:12:44;;;;;;;;;;;8.70;90.30;;;;;;5037545;27;88122;-64
2021/03/06 07:15:20;;;;;;;;;;;8.70;90.20;;;;;;5044024;28;87293;-64
2021/03/06 07:17:46;;;;;;;;;;;8.70;90.40;;;;;;5042277;27;87109;-64
2021/03/06 07:20:21;;;;;;;;;;;8.70;90.40;;;;;;5040302;27;87552;-64
2021/03/06 07:22:50;;;;;;;;;;;8.70;90.20;;;;;;5041979;28;87187;-64
2021/03/06 07:25:15;;;;;;;;;;;8.70;90.30;;;;;;5037403;27;88081;-64
2021/03/06 07:27:41;;;;;;;;;;;8.70;90.30;;;;;;5037302;28;87137;-64
2021/03/06 07:30:07;;;;;;;;;;;8.70;90.30;;;;;;5039664;28;87137;-65
2021/03/06 07:32:36;;;;;;;;;;;8.70;90.30;;;;;;5041279;27;87512;-64
2021/03/06 07:35:03;;;;;;;;;;;8.60;90.30;;;;;;5038231;28;88441;-64
2021/03/06 07:37:30;;;;;;;;;;;8.60;90.30;;;;;;5043573;27;87138;-65
2021/03/06 07:39:57;;;;;;;;;;;8.60;90.30;;;;;;5039036;27;88257;-64
2021/03/06 07:42:26;;;;;;;;;;;8.60;90.20;;;;;;5037854;27;86420;-64
2021/03/06 07:44:53;;;;;;;;;;;8.60;90.30;;;;;;5038352;28;87157;-63
2021/03/06 07:47:19;;;;;;;;;;;8.60;90.40;;;;;;5038160;27;88058;-64
2021/03/06 07:49:48;;;;;;;;;;;8.60;90.30;;;;;;5037879;27;88082;-64
2021/03/06 07:52:14;;;;;;;;;;;8.60;90.30;;;;;;5040128;27;88845;-65
2021/03/06 07:54:40;;;;;;;;;;;8.50;90.30;;;;;;5039003;27;87894;-64
2021/03/06 07:57:05;;;;;;;;;;;8.50;90.30;;;;;;5037981;27;88016;-64
2021/03/06 08:00:03;;;;;;;;;;;8.50;90.30;;;;;;5040079;28;88015;-64
2021/03/06 08:02:37;;;;;;;;;;;8.50;90.30;;;;;;5006341;27;87203;-64
2021/03/06 08:05:03;;;;;;;;;;;8.50;90.30;;;;;;5037897;28;87565;-64
2021/03/06 08:07:45;;;;;;;;;;;8.50;90.30;;;;;;5037629;27;88777;-64
2021/03/06 08:10:11;;;;;;;;;;;8.50;90.20;;;;;;5038017;27;87931;-64
2021/03/06 08:12:37;;;;;;;;;;;8.50;90.30;;;;;;5038267;28;87684;-64
2021/03/06 08:15:21;;;;;;;;;;;8.50;90.20;;;;;;5040473;27;89658;-65
2021/03/06 08:17:47;;;;;;;;;;;8.50;90.20;;;;;;5036078;28;88183;-64
2021/03/06 08:20:21;;;;;;;;;;;8.50;90.20;;;;;;5042543;27;87377;-64
2021/03/06 08:23:07;;;;;;;;;;;8.40;90.20;;;;;;5038131;27;87168;-64
2021/03/06 08:25:32;;;;;;;;;;;8.40;90.30;;;;;;5037988;28;87292;-64
2021/03/06 08:28:20;;;;;;;;;;;8.40;90.20;;;;;;5038353;28;88123;-64
2021/03/06 08:30:45;;;;;;;;;;;8.40;90.30;;;;;;5040032;28;88699;-64
2021/03/06 08:33:15;;;;;;;;;;;8.40;90.20;;;;;;5039141;28;87745;-64
2021/03/06 08:35:40;;;;;;;;;;;8.40;90.40;;;;;;5036561;27;87168;-64
2021/03/06 08:38:24;;;;;;;;;;;8.40;90.30;;;;;;5036348;28;87180;-64
2021/03/06 08:40:51;;;;;;;;;;;8.40;90.30;;;;;;5036503;28;88130;-63
2021/03/06 08:43:18;;;;;;;;;;;8.30;90.30;;;;;;5038676;27;87586;-64
2021/03/06 08:45:43;;;;;;;;;;;8.30;90.20;;;;;;5040773;27;87229;-64
2021/03/06 08:48:09;;;;;;;;;;;8.30;90.40;;;;;;5039647;28;87749;-64
2021/03/06 08:50:37;;;;;;;;;;;8.30;90.20;;;;;;5039716;28;87135;-65
2021/03/06 08:53:04;;;;;;;;;;;8.30;90.40;;;;;;5036215;27;87879;-64
2021/03/06 08:55:30;;;;;;;;;;;8.30;90.10;;;;;;5037116;27;87686;-64
2021/03/06 08:58:02;;;;;;;;;;;8.30;90.20;;;;;;5041071;27;87954;-65
2021/03/06 09:00:30;;;;;;;;;;;8.30;90.30;;;;;;5038267;28;87172;-64
2021/03/06 09:02:56;;;;;;;;;;;8.30;90.30;;;;;;5036913;27;87224;-64
2021/03/06 09:05:21;;;;;;;;;;;8.30;90.30;;;;;;5039683;27;89349;-66
2021/03/06 09:07:51;;;;;;;;;;;8.30;90.20;;;;;;5039863;28;88884;-65
2021/03/06 09:10:29;;;;;;;;;;;8.20;90.30;;;;;;5038252;28;87803;-64
2021/03/06 09:13:00;;;;;;;;;;;8.20;90.30;;;;;;5040589;27;87219;-64
2021/03/06 09:15:27;;;;;;;;;;;8.20;90.20;;;;;;5038946;27;88134;-64
2021/03/06 09:17:52;;;;;;;;;;;8.20;90.30;;;;;;5036616;27;87169;-64
2021/03/06 09:20:18;;;;;;;;;;;8.20;90.30;;;;;;5038628;27;87638;-64
2021/03/06 09:22:45;;;;;;;;;;;8.10;90.20;;;;;;5042231;28;87835;-64
2021/03/06 09:25:11;;;;;;;;;;;8.20;90.20;;;;;;5038781;28;87239;-64
2021/03/06 09:27:43;;;;;;;;;;;8.20;90.20;;;;;;5043291;28;87502;-64
2021/03/06 09:30:23;;;;;;;;;;;8.20;90.30;;;;;;5043639;27;88051;-64
2021/03/06 09:32:48;;;;;;;;;;;8.10;90.30;;;;;;5041481;28;88373;-64
2021/03/06 09:35:15;;;;;;;;;;;8.10;90.20;;;;;;5039295;27;87977;-64
2021/03/06 09:37:40;;;;;;;;;;;8.10;90.10;;;;;;5040413;27;88767;-63
2021/03/06 09:40:15;;;;;;;;;;;8.10;90.10;;;;;;5040339;28;87143;-64
2021/03/06 09:42:41;;;;;;;;;;;8.10;90.20;;;;;;5040486;28;88079;-63
2021/03/06 09:45:07;;;;;;;;;;;8.10;90.10;;;;;;5039705;27;87123;-64
2021/03/06 09:47:33;;;;;;;;;;;8.00;90.00;;;;;;5041807;27;86787;-64
2021/03/06 09:49:58;;;;;;;;;;;8.00;90.00;;;;;;5043320;28;88172;-64
2021/03/06 09:52:31;;;;;;;;;;;8.00;90.10;;;;;;5040039;28;87788;-64
2021/03/06 09:54:56;;;;;;;;;;;8.00;90.10;;;;;;5042687;27;89576;-64
2021/03/06 09:57:24;;;;;;;;;;;8.00;89.80;;;;;;5042910;28;87226;-64
2021/03/06 09:59:50;;;;;;;;;;;8.00;89.90;;;;;;5040429;27;87416;-64
2021/03/06 10:02:17;;;;;;;;;;;8.00;90.10;;;;;;5040028;28;87772;-64
2021/03/06 10:04:46;;;;;;;;;;;7.90;90.00;;;;;;5039205;28;87199;-64
2021/03/06 10:07:12;;;;;;;;;;;8.00;90.00;;;;;;5040735;28;87426;-64
2021/03/06 10:09:38;;;;;;;;;;;7.90;89.80;;;;;;5039969;28;87835;-64
2021/03/06 10:12:05;;;;;;;;;;;7.90;89.70;;;;;;5042901;27;86436;-64
2021/03/06 10:14:30;;;;;;;;;;;7.90;90.10;;;;;;5040054;27;89936;-63
2021/03/06 10:16:57;;;;;;;;;;;7.90;90.00;;;;;;5043192;28;87197;-65
2021/03/06 10:19:24;;;;;;;;;;;7.90;90.00;;;;;;5040800;28;88252;-64
2021/03/06 10:21:55;;;;;;;;;;;7.90;90.00;;;;;;5039663;27;87688;-64
2021/03/06 10:24:21;;;;;;;;;;;7.80;90.00;;;;;;5039471;28;87183;-64
2021/03/06 10:26:53;;;;;;;;;;;7.80;90.00;;;;;;5040020;27;88040;-64
2021/03/06 10:29:20;;;;;;;;;;;7.80;89.50;;;;;;5039283;27;88073;-68
2021/03/06 10:31:54;;;;;;;;;;;7.80;89.60;;;;;;5041479;27;88858;-64
2021/03/06 10:34:27;;;;;;;;;;;7.80;90.00;;;;;;5040464;27;87845;-64
2021/03/06 10:37:10;;;;;;;;;;;7.80;89.50;;;;;;5039570;28;86393;-65
2021/03/06 10:39:56;;;;;;;;;;;7.80;89.70;;;;;;5039512;28;87180;-64
2021/03/06 10:42:22;;;;;;;;;;;7.80;89.90;;;;;;5039770;28;87149;-64
2021/03/06 10:44:48;;;;;;;;;;;7.80;89.90;;;;;;5037428;27;88087;-64
2021/03/06 10:47:14;;;;;;;;;;;7.80;89.80;;;;;;5038375;28;90000;-64
2021/03/06 10:49:41;;;;;;;;;;;7.80;90.10;;;;;;5038572;27;88772;-64
2021/03/06 10:52:11;;;;;;;;;;;7.70;90.00;;;;;;5042761;27;87146;-65
2021/03/06 10:54:49;;;;;;;;;;;7.70;89.70;;;;;;5044872;28;87411;-65
2021/03/06 10:57:15;;;;;;;;;;;7.70;90.00;;;;;;5039070;27;87127;-64
2021/03/06 10:59:40;;;;;;;;;;;7.70;89.70;;;;;;5038188;27;87171;-64
2021/03/06 11:02:06;;;;;;;;;;;7.70;89.60;;;;;;5038064;28;87997;-64
2021/03/06 11:04:33;;;;;;;;;;;7.70;89.70;;;;;;5038422;27;88206;-64
2021/03/06 11:06:59;;;;;;;;;;;7.70;89.30;;;;;;5040083;27;88210;-64
2021/03/06 11:09:26;;;;;;;;;;;7.70;89.70;;;;;;5041788;27;89111;-65
2021/03/06 11:11:52;;;;;;;;;;;7.70;89.40;;;;;;5040081;28;87145;-64
2021/03/06 11:14:25;;;;;;;;;;;7.60;89.20;;;;;;5040597;27;87386;-64
2021/03/06 11:16:50;;;;;;;;;;;7.60;89.60;;;;;;5041225;27;88304;-64
2021/03/06 11:19:16;;;;;;;;;;;7.60;89.50;;;;;;5038714;27;87529;-64
2021/03/06 11:21:41;;;;;;;;;;;7.60;89.30;;;;;;5039061;27;88114;-64
2021/03/06 11:24:08;;;;;;;;;;;7.60;89.30;;;;;;5041398;27;87161;-64
2021/03/06 11:26:34;;;;;;;;;;;7.60;89.40;;;;;;5039210;28;89035;-64
2021/03/06 11:29:00;;;;;;;;;;;7.60;89.20;;;;;;5040647;28;88131;-65
2021/03/06 11:31:26;;;;;;;;;;;7.60;89.50;;;;;;5041807;28;87173;-64
2021/03/06 11:33:51;;;;;;;;;;;7.60;89.50;;;;;;5039845;27;88116;-64
2021/03/06 11:36:17;;;;;;;;;;;7.60;89.60;;;;;;5039426;28;88112;-64
2021/03/06 11:38:42;;;;;;;;;;;7.60;89.60;;;;;;5042397;28;87165;-64
2021/03/06 11:41:08;;;;;;;;;;;7.60;89.50;;;;;;5039242;28;88271;-64
2021/03/06 11:43:33;;;;;;;;;;;7.60;89.60;;;;;;5037895;27;87168;-64
2021/03/06 11:45:59;;;;;;;;;;;7.60;89.40;;;;;;5039454;28;87218;-64
2021/03/06 11:48:25;;;;;;;;;;;7.60;89.70;;;;;;5036933;28;89458;-64
2021/03/06 11:50:50;;;;;;;;;;;7.60;89.30;;;;;;5039685;28;86431;-64
2021/03/06 11:53:16;;;;;;;;;;;7.60;88.90;;;;;;5039585;27;87206;-64
2021/03/06 11:55:42;;;;;;;;;;;7.50;88.70;;;;;;5039252;27;88027;-64
2021/03/06 11:58:08;;;;;;;;;;;7.50;88.70;;;;;;5040266;27;88138;-64
2021/03/06 12:00:35;;;;;;;;;;;7.50;89.00;;;;;;5041092;27;88139;-64
2021/03/06 12:03:00;;;;;;;;;;;7.60;89.30;;;;;;5041949;27;87138;-64
2021/03/06 12:05:26;;;;;;;;;;;7.50;89.30;;;;;;5041362;27;87898;-65
2021/03/06 12:07:52;;;;;;;;;;;7.60;89.00;;;;;;5041153;28;88010;-64
2021/03/06 12:10:19;;;;;;;;;;;7.50;89.20;;;;;;5039379;28;87201;-65
2021/03/06 12:12:45;;;;;;;;;;;7.60;89.00;;;;;;5036506;27;87212;-64
2021/03/06 12:15:11;;;;;;;;;;;7.60;89.30;;;;;;5038150;28;86968;-64
2021/03/06 12:17:37;;;;;;;;;;;7.50;89.40;;;;;;5039440;27;87178;-64
2021/03/06 12:20:03;;;;;;;;;;;7.50;89.10;;;;;;5044076;28;87947;-65
2021/03/06 12:22:29;;;;;;;;;;;7.50;89.20;;;;;;5039956;27;88124;-64
2021/03/06 12:24:55;;;;;;;;;;;7.50;89.20;;;;;;5040197;28;88944;-64
2021/03/06 12:27:20;;;;;;;;;;;7.50;89.30;;;;;;5041086;27;87213;-64
2021/03/06 12:29:46;;;;;;;;;;;7.50;89.20;;;;;;5040497;28;87938;-64
2021/03/06 12:32:11;;;;;;;;;;;7.50;89.40;;;;;;5041336;28;87745;-65
2021/03/06 12:34:37;;;;;;;;;;;7.50;88.80;;;;;;5040118;28;88204;-64
2021/03/06 12:37:03;;;;;;;;;;;7.50;89.20;;;;;;5039108;28;87147;-64
2021/03/06 12:39:29;;;;;;;;;;;7.50;89.20;;;;;;5039904;27;86851;-64
2021/03/06 12:41:55;;;;;;;;;;;7.40;88.70;;;;;;5042167;28;88225;-64
2021/03/06 12:44:20;;;;;;;;;;;7.50;88.90;;;;;;5040783;28;88954;-65
2021/03/06 12:46:47;;;;;;;;;;;7.50;88.60;;;;;;5039339;28;88964;-65
2021/03/06 12:49:16;;;;;;;;;;;7.40;88.80;;;;;;5040445;27;87151;-64
2021/03/06 12:51:42;;;;;;;;;;;7.40;88.90;;;;;;5040330;27;88568;-64
2021/03/06 12:54:07;;;;;;;;;;;7.40;88.80;;;;;;5040134;27;88659;-64
2021/03/06 12:56:33;;;;;;;;;;;7.40;89.00;;;;;;5040052;28;87205;-64
2021/03/06 12:58:58;;;;;;;;;;;7.50;89.30;;;;;;5040498;28;87356;-64
2021/03/06 13:01:24;;;;;;;;;;;7.40;89.40;;;;;;5040851;28;88261;-64
2021/03/06 13:03:49;;;;;;;;;;;7.40;89.20;;;;;;5042556;28;87790;-65
2021/03/06 13:06:15;;;;;;;;;;;7.40;89.20;;;;;;5037939;28;88105;-63
2021/03/06 13:08:40;;;;;;;;;;;7.40;89.30;;;;;;5038190;28;87171;-63
2021/03/06 13:11:06;;;;;;;;;;;7.50;89.40;;;;;;5036544;28;88121;-64
2021/03/06 13:13:32;;;;;;;;;;;7.50;89.60;;;;;;5036488;28;88225;-64
2021/03/06 13:15:57;;;;;;;;;;;7.40;89.40;;;;;;5037473;28;87126;-64
2021/03/06 13:18:23;;;;;;;;;;;7.40;89.50;;;;;;5037315;28;87182;-64
2021/03/06 13:20:49;;;;;;;;;;;7.40;89.40;;;;;;5037328;28;88441;-64
2021/03/06 13:23:14;;;;;;;;;;;7.40;89.20;;;;;;5039723;27;87149;-65
2021/03/06 13:25:40;;;;;;;;;;;7.40;89.50;;;;;;5042593;28;87597;-65
2021/03/06 13:28:07;;;;;;;;;;;7.40;89.50;;;;;;5040482;27;86523;-64
2021/03/06 13:30:32;;;;;;;;;;;7.40;89.40;;;;;;5038775;27;87179;-65
2021/03/06 13:32:58;;;;;;;;;;;7.40;89.40;;;;;;5038870;27;88123;-65
2021/03/06 13:35:24;;;;;;;;;;;7.50;89.50;;;;;;5039589;27;88193;-65
2021/03/06 13:37:49;;;;;;;;;;;7.50;89.60;;;;;;5038390;28;88837;-64
2021/03/06 13:40:15;;;;;;;;;;;7.40;89.40;;;;;;5038142;28;87935;-64
2021/03/06 13:42:41;;;;;;;;;;;7.40;89.50;;;;;;5036567;28;87107;-64
2021/03/06 13:45:07;;;;;;;;;;;7.50;89.50;;;;;;5035664;28;89069;-65
2021/03/06 13:47:34;;;;;;;;;;;7.50;89.50;;;;;;5038831;27;87579;-64
2021/03/06 13:50:00;;;;;;;;;;;7.40;89.40;;;;;;5039079;27;87130;-64
2021/03/06 13:52:25;;;;;;;;;;;7.50;89.20;;;;;;5038639;28;87097;-64
2021/03/06 13:54:51;;;;;;;;;;;7.50;89.20;;;;;;5039309;28;87160;-64
2021/03/06 13:57:16;;;;;;;;;;;7.40;89.30;;;;;;5037851;28;88721;-64
2021/03/06 13:59:42;;;;;;;;;;;7.50;89.20;;;;;;5036047;28;89048;-64
2021/03/06 14:02:08;;;;;;;;;;;7.40;89.20;;;;;;5038384;28;87199;-64
2021/03/06 14:04:33;;;;;;;;;;;7.40;89.10;;;;;;5038138;27;87228;-64
2021/03/06 14:06:59;;;;;;;;;;;7.40;89.20;;;;;;5038519;28;87779;-64
2021/03/06 14:09:24;;;;;;;;;;;7.50;89.10;;;;;;5043912;28;87150;-64
2021/03/06 14:11:50;;;;;;;;;;;7.40;89.40;;;;;;5041088;28;87713;-64
2021/03/06 14:14:15;;;;;;;;;;;7.40;89.30;;;;;;5042878;28;87152;-65
2021/03/06 14:16:41;;;;;;;;;;;7.40;89.40;;;;;;5043404;28;86860;-66
2021/03/06 14:19:06;;;;;;;;;;;7.40;89.40;;;;;;5039612;28;87791;-64
2021/03/06 14:21:32;;;;;;;;;;;7.40;89.20;;;;;;5041326;27;87168;-65
2021/03/06 14:23:58;;;;;;;;;;;7.40;89.00;;;;;;5042139;28;88225;-64
2021/03/06 14:26:23;;;;;;;;;;;7.40;88.80;;;;;;5041208;27;88102;-66
2021/03/06 14:28:49;;;;;;;;;;;7.40;88.70;;;;;;5046321;27;87148;-65